createdAt,value
2022-12-22T00:00:12.375Z,94007.06
2022-12-22T00:02:57.937Z,94003.41
2022-12-22T00:05:43.257Z,94004.03
2022-12-22T00:08:28.918Z,93995.56
2022-12-22T00:11:15.344Z,93986.94
2022-12-22T00:14:02.453Z,93989.16
2022-12-22T00:16:55.029Z,93979.22
2022-12-22T00:19:40.953Z,93979.69
2022-12-22T00:22:35.601Z,93976.06
2022-12-22T00:25:20.790Z,93976.50
2022-12-22T00:28:06.166Z,93973.31
2022-12-22T00:30:51.360Z,93955.78
2022-12-22T00:33:37.934Z,93986.09
2022-12-22T00:36:25.209Z,93976.97
2022-12-22T00:39:10.489Z,93991.69
2022-12-22T00:41:55.873Z,93985.63
2022-12-22T00:44:41.332Z,93971.41
2022-12-22T00:47:32.521Z,93980.34
2022-12-22T00:50:18.129Z,93988.00
2022-12-22T00:53:03.548Z,93984.50
2022-12-22T00:55:49.937Z,93981.94
2022-12-22T00:58:36.640Z,93983.53
2022-12-22T01:01:22.168Z,93981.31
2022-12-22T01:04:07.517Z,93978.59
2022-12-22T01:06:54.154Z,93983.84
2022-12-22T01:09:40.451Z,93987.53
2022-12-22T01:12:34.839Z,93971.06
2022-12-22T01:15:19.901Z,93978.72
2022-12-22T01:18:05.413Z,93983.53
2022-12-22T01:20:50.850Z,93958.91
2022-12-22T01:23:36.200Z,93972.81
2022-12-22T01:26:21.709Z,93968.34
2022-12-22T01:29:07.088Z,93957.59
2022-12-22T01:31:52.366Z,93956.00
2022-12-22T01:34:37.548Z,93954.75
2022-12-22T01:37:22.849Z,93938.16
2022-12-22T01:40:08.457Z,93951.22
2022-12-22T01:42:53.864Z,93949.00
2022-12-22T01:45:52.800Z,93953.16
2022-12-22T01:48:44.314Z,93955.25
2022-12-22T01:51:32.721Z,93958.59
2022-12-22T01:54:18.293Z,93948.69
2022-12-22T01:57:05.057Z,93950.63
2022-12-22T01:59:50.295Z,93952.22
2022-12-22T02:02:36.778Z,93945.19
2022-12-22T02:05:23.743Z,93922.97
2022-12-22T02:08:39.369Z,93941.81
2022-12-22T02:11:35.781Z,93950.88
2022-12-22T02:14:35.566Z,93942.94
2022-12-22T02:17:44.132Z,93959.06
2022-12-22T02:20:37.131Z,93953.78
2022-12-22T02:23:45.565Z,93952.03
2022-12-22T02:26:46.073Z,93954.75
2022-12-22T02:29:38.380Z,93956.00
2022-12-22T02:32:25.510Z,93952.47
2022-12-22T02:35:10.659Z,93946.88
2022-12-22T02:38:18.121Z,93948.78
2022-12-22T02:41:25.649Z,93952.78
2022-12-22T02:44:38.900Z,93950.53
2022-12-22T02:47:32.320Z,93943.72
2022-12-22T02:50:23.829Z,93944.53
2022-12-22T02:53:09.441Z,93930.00
2022-12-22T02:55:54.739Z,93938.59
2022-12-22T02:58:39.905Z,93933.97
2022-12-22T03:01:25.376Z,93935.25
2022-12-22T03:04:10.805Z,93936.78
2022-12-22T03:06:56.295Z,93939.41
2022-12-22T03:09:41.702Z,93944.53
2022-12-22T03:12:27.269Z,93941.00
2022-12-22T03:15:12.446Z,93942.25
2022-12-22T03:17:57.778Z,93938.09
2022-12-22T03:20:43.344Z,93936.00
2022-12-22T03:23:28.889Z,93934.06
2022-12-22T03:25:55.501Z,93929.63
2022-12-22T03:28:25.485Z,93928.22
2022-12-22T03:30:59.755Z,93915.44
2022-12-22T03:33:26.909Z,93921.78
2022-12-22T03:35:53.783Z,93921.78
2022-12-22T03:38:21.010Z,93914.09
2022-12-22T03:40:47.938Z,93909.94
2022-12-22T03:43:34.108Z,93903.88
2022-12-22T03:46:10.098Z,93911.53
2022-12-22T03:48:36.773Z,93909.47
2022-12-22T03:51:03.547Z,93908.81
2022-12-22T03:53:30.151Z,93898.97
2022-12-22T03:55:57.366Z,93900.19
2022-12-22T03:58:25.118Z,93895.28
2022-12-22T04:00:51.932Z,93904.84
2022-12-22T04:03:18.762Z,93897.16
2022-12-22T04:05:45.803Z,93886.13
2022-12-22T04:08:12.468Z,93887.94
2022-12-22T04:10:58.078Z,93896.88
2022-12-22T04:13:24.705Z,93893.38
2022-12-22T04:15:51.467Z,93890.19
2022-12-22T04:18:18.160Z,93893.38
2022-12-22T04:20:44.876Z,93886.19
2022-12-22T04:23:11.624Z,93904.41
2022-12-22T04:25:38.316Z,93895.28
2022-12-22T04:28:05.010Z,93893.69
2022-12-22T04:30:31.761Z,93901.84
2022-12-22T04:32:58.445Z,93896.56
2022-12-22T04:35:25.192Z,93891.78
2022-12-22T04:37:51.884Z,93895.63
2022-12-22T04:40:18.591Z,93895.13
2022-12-22T04:42:45.278Z,93887.47
2022-12-22T04:45:12.042Z,93882.81
2022-12-22T04:47:38.872Z,93889.50
2022-12-22T04:50:06.318Z,93881.69
2022-12-22T04:52:32.998Z,93877.63
2022-12-22T04:54:59.719Z,93860.13
2022-12-22T04:57:26.430Z,93870.94
2022-12-22T04:59:53.165Z,93859.06
2022-12-22T05:02:20.030Z,93861.66
2022-12-22T05:04:46.849Z,93863.25
2022-12-22T05:07:13.581Z,93856.59
2022-12-22T05:09:40.445Z,93862.69
2022-12-22T05:12:27.096Z,93861.88
2022-12-22T05:14:53.916Z,93871.66
2022-12-22T05:17:20.709Z,93868.78
2022-12-22T05:19:47.473Z,93868.63
2022-12-22T05:22:14.102Z,93873.25
2022-12-22T05:24:40.744Z,93867.19
2022-12-22T05:27:07.331Z,93865.09
2022-12-22T05:29:33.917Z,93869.56
2022-12-22T05:32:00.499Z,93864.91
2022-12-22T05:34:27.381Z,93870.06
2022-12-22T05:36:54.009Z,93874.84
2022-12-22T05:39:20.636Z,93867.03
2022-12-22T05:41:47.208Z,93871.00
2022-12-22T05:44:13.831Z,93864.28
2022-12-22T05:46:40.488Z,93875.97
2022-12-22T05:49:07.143Z,93876.44
2022-12-22T05:51:33.704Z,93873.88
2022-12-22T05:54:00.341Z,93870.34
2022-12-22T05:56:26.965Z,93872.91
2022-12-22T05:58:53.614Z,93867.97
2022-12-22T06:01:20.315Z,93864.09
2022-12-22T06:03:47.047Z,93861.56
2022-12-22T06:06:13.872Z,93865.25
2022-12-22T06:08:40.582Z,93860.75
2022-12-22T06:11:07.150Z,93858.38
2022-12-22T06:13:33.827Z,93861.41
2022-12-22T06:16:00.623Z,93865.72
2022-12-22T06:18:28.394Z,93856.31
2022-12-22T06:20:55.059Z,93855.97
2022-12-22T06:23:22.894Z,93838.69
2022-12-22T06:26:02.230Z,93836.78
2022-12-22T06:28:29.255Z,93837.22
2022-12-22T06:30:56.098Z,93832.63
2022-12-22T06:33:22.984Z,93828.09
2022-12-22T06:35:53.889Z,93838.63
2022-12-22T06:38:25.119Z,93819.88
2022-12-22T06:40:51.828Z,93833.28
2022-12-22T06:43:18.540Z,93831.53
2022-12-22T06:45:45.733Z,93837.28
2022-12-22T06:48:13.325Z,93832.31
2022-12-22T06:50:40.648Z,93830.41
2022-12-22T06:53:08.240Z,93824.16
2022-12-22T06:55:35.111Z,93832.09
2022-12-22T06:58:02.294Z,93824.75
2022-12-22T07:00:29.271Z,93830.16
2022-12-22T07:02:56.406Z,93838.47
2022-12-22T07:05:24.039Z,93835.75
2022-12-22T07:07:51.068Z,93844.50
2022-12-22T07:10:17.852Z,93840.66
2022-12-22T07:12:44.447Z,93843.00
2022-12-22T07:15:11.311Z,93833.06
2022-12-22T07:17:38.245Z,93835.63
2022-12-22T07:20:05.365Z,93838.81
2022-12-22T07:22:32.043Z,93843.59
2022-12-22T07:24:58.981Z,93834.97
2022-12-22T07:27:25.824Z,93838.38
2022-12-22T07:29:52.575Z,93839.00
2022-12-22T07:32:19.255Z,93841.59
2022-12-22T07:34:45.989Z,93837.97
2022-12-22T07:37:13.892Z,93833.28
2022-12-22T07:39:41.073Z,93839.75
2022-12-22T07:42:26.575Z,93825.84
2022-12-22T07:44:53.479Z,93835.59
2022-12-22T07:47:20.116Z,93840.88
2022-12-22T07:50:05.160Z,93836.09
2022-12-22T07:52:31.893Z,93830.84
2022-12-22T07:54:58.654Z,93836.44
2022-12-22T07:57:26.471Z,93832.31
2022-12-22T07:59:54.005Z,93829.72
2022-12-22T08:02:20.858Z,93830.56
2022-12-22T08:04:47.798Z,93834.28
2022-12-22T08:07:14.674Z,93827.84
2022-12-22T08:09:41.388Z,93832.06
2022-12-22T08:12:08.199Z,93835.75
2022-12-22T08:14:34.971Z,93828.25
2022-12-22T08:17:01.700Z,93837.97
2022-12-22T08:19:28.672Z,93844.53
2022-12-22T08:21:55.372Z,93832.63
2022-12-22T08:24:22.227Z,93844.03
2022-12-22T08:26:51.549Z,93839.59
2022-12-22T08:29:22.696Z,93838.22
2022-12-22T08:31:49.870Z,93842.97
2022-12-22T08:34:17.032Z,93833.53
2022-12-22T08:36:49.730Z,93834.78
2022-12-22T08:39:17.587Z,93833.25
2022-12-22T08:41:50.150Z,93824.31
2022-12-22T08:44:28.046Z,93831.19
2022-12-22T08:46:56.919Z,93823.63
2022-12-22T08:49:24.627Z,93816.88
2022-12-22T08:51:51.746Z,93813.13
2022-12-22T08:54:18.847Z,93821.13
2022-12-22T08:56:45.831Z,93817.06
2022-12-22T08:59:13.173Z,93818.31
2022-12-22T09:01:47.015Z,93815.28
2022-12-22T09:04:17.834Z,93804.88
2022-12-22T09:06:45.087Z,93806.69
2022-12-22T09:09:13.158Z,93802.03
2022-12-22T09:11:40.685Z,93803.00
2022-12-22T09:14:08.899Z,93799.63
2022-12-22T09:16:36.317Z,93789.22
2022-12-22T09:19:03.884Z,93787.13
2022-12-22T09:21:30.878Z,93789.72
2022-12-22T09:23:58.449Z,93781.94
2022-12-22T09:26:27.595Z,93797.75
2022-12-22T09:28:55.391Z,93785.13
2022-12-22T09:31:23.084Z,93787.81
2022-12-22T09:33:49.967Z,93783.66
2022-12-22T09:36:28.927Z,93799.78
2022-12-22T09:38:55.666Z,93786.50
2022-12-22T09:41:29.283Z,93786.84
2022-12-22T09:43:56.622Z,93778.03
2022-12-22T09:46:26.430Z,93779.97
2022-12-22T09:48:54.270Z,93771.16
2022-12-22T09:51:26.827Z,93767.19
2022-12-22T09:53:59.312Z,93766.19
2022-12-22T09:56:27.837Z,93755.97
2022-12-22T09:58:54.588Z,93755.00
2022-12-22T10:01:28.494Z,93758.19
2022-12-22T10:04:01.501Z,93765.63
2022-12-22T10:06:45.482Z,93747.84
2022-12-22T10:09:46.325Z,93743.47
2022-12-22T10:12:05.848Z,93735.16
2022-12-22T10:14:38.019Z,93734.78
2022-12-22T10:17:25.295Z,93715.53
2022-12-22T10:19:54.637Z,93705.88
2022-12-22T10:22:36.718Z,93698.13
2022-12-22T10:25:06.122Z,93701.53
2022-12-22T10:27:37.287Z,93709.19
2022-12-22T10:30:25.346Z,93710.00
2022-12-22T10:33:11.092Z,93719.94
2022-12-22T10:35:50.983Z,93724.00
2022-12-22T10:38:54.242Z,93727.09
2022-12-22T10:41:22.800Z,93728.94
2022-12-22T10:43:55.496Z,93726.56
2022-12-22T10:46:39.286Z,93727.25
2022-12-22T10:49:12.724Z,93733.34
2022-12-22T10:51:41.146Z,93730.94
2022-12-22T10:54:07.989Z,93738.91
2022-12-22T10:56:35.172Z,93742.97
2022-12-22T10:59:01.868Z,93747.13
2022-12-22T11:01:36.287Z,93735.56
2022-12-22T11:04:25.032Z,93730.53
2022-12-22T11:06:53.640Z,93727.63
2022-12-22T11:09:35.955Z,93725.06
2022-12-22T11:12:08.515Z,93717.41
2022-12-22T11:14:49.146Z,93713.47
2022-12-22T11:17:30.676Z,93703.19
2022-12-22T11:20:35.014Z,93698.00
2022-12-22T11:23:23.329Z,93710.31
2022-12-22T11:26:16.247Z,93717.31
2022-12-22T11:28:48.576Z,93734.47
2022-12-22T11:31:23.561Z,93733.47
2022-12-22T11:34:21.196Z,93746.56
2022-12-22T11:37:10.155Z,93753.09
2022-12-22T11:39:59.335Z,93717.06
2022-12-22T11:43:04.118Z,93712.97
2022-12-22T11:46:23.430Z,93714.25
2022-12-22T11:49:10.268Z,93718.25
2022-12-22T11:51:50.925Z,93728.69
2022-12-22T11:54:50.255Z,93706.88
2022-12-22T11:57:37.306Z,93715.13
2022-12-22T12:00:14.952Z,93734.56
2022-12-22T12:02:49.339Z,93732.44
2022-12-22T12:05:25.245Z,93726.81
2022-12-22T12:07:56.394Z,93723.50
2022-12-22T12:10:35.536Z,93705.44
2022-12-22T12:13:31.601Z,93709.41
2022-12-22T12:16:19.928Z,93704.81
2022-12-22T12:18:57.552Z,93697.78
2022-12-22T12:21:50.462Z,93679.94
2022-12-22T12:24:29.686Z,93680.47
2022-12-22T12:27:14.775Z,93692.34
2022-12-22T12:30:28.571Z,93709.50
2022-12-22T12:33:03.993Z,93696.06
2022-12-22T12:35:49.211Z,93697.44
2022-12-22T12:41:25.156Z,93691.22
2022-12-22T12:43:54.574Z,93690.19
2022-12-22T12:46:54.046Z,93698.66
2022-12-22T12:49:38.940Z,93680.34
2022-12-22T12:52:09.957Z,93682.06
2022-12-22T12:54:39.167Z,93673.16
2022-12-22T12:57:25.821Z,93650.91
2022-12-22T12:59:55.857Z,93654.19
2022-12-22T13:02:29.098Z,93664.47
2022-12-22T13:05:11.693Z,93660.00
2022-12-22T13:08:16.225Z,93669.47
2022-12-22T13:10:47.468Z,93661.47
2022-12-22T13:13:34.935Z,93656.09
2022-12-22T13:16:07.600Z,93650.06
2022-12-22T13:18:34.305Z,93652.38
2022-12-22T13:24:25.238Z,93651.28
2022-12-22T13:26:55.314Z,93650.06
2022-12-22T13:29:25.387Z,93645.66
2022-12-22T13:31:56.493Z,93636.56
2022-12-22T13:34:46.288Z,93639.75
2022-12-22T13:37:25.374Z,93624.56
2022-12-22T13:40:34.172Z,93637.53
2022-12-22T13:43:17.927Z,93644.50
2022-12-22T13:45:47.154Z,93652.97
2022-12-22T13:48:22.460Z,93651.47
2022-12-22T13:50:52.280Z,93652.22
2022-12-22T13:54:07.300Z,93648.50
2022-12-22T13:56:16.751Z,93636.28
2022-12-22T13:58:47.659Z,93652.50
2022-12-22T14:01:17.498Z,93662.97
2022-12-22T14:04:02.209Z,93666.31
2022-12-22T14:06:37.686Z,93671.44
2022-12-22T14:09:24.659Z,93683.03
2022-12-22T14:11:55.385Z,93709.72
2022-12-22T14:14:38.757Z,93691.22
2022-12-22T14:17:34.241Z,93720.03
2022-12-22T14:20:09.120Z,93715.59
2022-12-22T14:22:43.618Z,93695.31
2022-12-22T14:25:20.501Z,93692.00
2022-12-22T14:27:56.014Z,93709.41
2022-12-22T14:30:36.191Z,93709.75
2022-12-22T14:33:23.646Z,93716.84
2022-12-22T14:35:50.441Z,93713.78
2022-12-22T14:38:21.492Z,93731.44
2022-12-22T14:40:52.639Z,93731.81
2022-12-22T14:43:26.960Z,93750.34
2022-12-22T14:46:06.469Z,93779.03
2022-12-22T14:48:46.365Z,93781.13
2022-12-22T14:51:17.779Z,93763.81
2022-12-22T14:53:50.777Z,93778.50
2022-12-22T14:56:20.242Z,93790.97
2022-12-22T14:58:48.238Z,93760.53
2022-12-22T15:01:25.209Z,93750.78
2022-12-22T15:04:22.497Z,93752.94
2022-12-22T15:06:49.480Z,93757.81
2022-12-22T15:09:16.158Z,93746.22
2022-12-22T15:12:02.922Z,93747.19
2022-12-22T15:14:38.267Z,93756.81
2022-12-22T15:17:06.992Z,93750.38
2022-12-22T15:19:35.410Z,93754.28
2022-12-22T15:22:02.373Z,93763.03
2022-12-22T15:24:29.479Z,93756.78
2022-12-22T15:26:56.574Z,93755.03
2022-12-22T15:29:23.327Z,93730.25
2022-12-22T15:31:50.078Z,93739.66
2022-12-22T15:34:24.595Z,93733.34
2022-12-22T15:36:51.527Z,93730.06
2022-12-22T15:39:19.932Z,93740.78
2022-12-22T15:41:46.980Z,93732.38
2022-12-22T15:44:14.265Z,93735.75
2022-12-22T15:46:42.904Z,93733.22
2022-12-22T15:49:14.839Z,93744.13
2022-12-22T15:51:42.810Z,93742.91
2022-12-22T15:54:13.663Z,93745.91
2022-12-22T15:56:40.392Z,93738.13
2022-12-22T15:59:11.661Z,93742.75
2022-12-22T16:01:38.537Z,93748.22
2022-12-22T16:04:05.582Z,93742.53
2022-12-22T16:06:32.808Z,93745.19
2022-12-22T16:09:00.238Z,93737.34
2022-12-22T16:11:26.995Z,93739.81
2022-12-22T16:13:53.859Z,93746.28
2022-12-22T16:16:20.786Z,93748.66
2022-12-22T16:18:47.539Z,93744.84
2022-12-22T16:21:19.752Z,93738.28
2022-12-22T16:23:48.296Z,93741.44
2022-12-22T16:26:18.583Z,93744.50
2022-12-22T16:28:45.306Z,93745.72
2022-12-22T16:31:20.221Z,93755.09
2022-12-22T16:33:47.432Z,93750.59
2022-12-22T16:36:14.352Z,93755.91
2022-12-22T16:38:41.475Z,93763.81
2022-12-22T16:41:19.498Z,93758.69
2022-12-22T16:43:49.079Z,93756.94
2022-12-22T16:46:19.199Z,93756.34
2022-12-22T16:48:49.164Z,93764.44
2022-12-22T16:51:19.735Z,93770.19
2022-12-22T16:53:46.544Z,93773.28
2022-12-22T16:56:17.988Z,93771.34
2022-12-22T16:58:45.509Z,93768.59
2022-12-22T17:01:37.320Z,93774.88
2022-12-22T17:04:30.776Z,93775.94
2022-12-22T17:07:00.030Z,93770.47
2022-12-22T17:09:32.562Z,93762.97
2022-12-22T17:12:01.045Z,93763.41
2022-12-22T17:14:34.253Z,93764.38
2022-12-22T17:17:01.046Z,93766.22
2022-12-22T17:19:27.886Z,93769.75
2022-12-22T17:21:55.819Z,93750.94
2022-12-22T17:24:28.211Z,93763.66
2022-12-22T17:27:06.116Z,93771.72
2022-12-22T17:29:33.119Z,93771.72
2022-12-22T17:31:59.889Z,93774.63
2022-12-22T17:34:26.716Z,93770.38
2022-12-22T17:36:55.909Z,93767.47
2022-12-22T17:39:23.351Z,93766.03
2022-12-22T17:41:56.246Z,93769.03
2022-12-22T17:44:25.271Z,93777.34
2022-12-22T17:46:52.296Z,93775.59
2022-12-22T17:49:22.276Z,93773.09
2022-12-22T17:51:49.431Z,93764.44
2022-12-22T17:54:23.239Z,93757.38
2022-12-22T17:56:50.262Z,93747.94
2022-12-22T17:59:17.099Z,93738.66
2022-12-22T18:01:43.907Z,93729.84
2022-12-22T18:04:10.958Z,93736.38
2022-12-22T18:06:40.012Z,93735.31
2022-12-22T18:09:07.808Z,93727.34
2022-12-22T18:11:34.556Z,93739.34
2022-12-22T18:14:01.514Z,93736.44
2022-12-22T18:16:28.551Z,93736.28
2022-12-22T18:18:55.482Z,93730.34
2022-12-22T18:21:24.458Z,93742.63
2022-12-22T18:23:51.738Z,93747.03
2022-12-22T18:26:24.909Z,93742.38
2022-12-22T18:28:51.879Z,93747.75
2022-12-22T18:31:19.147Z,93731.78
2022-12-22T18:33:46.084Z,93734.69
2022-12-22T18:36:33.088Z,93738.66
2022-12-22T18:39:00.999Z,93739.81
2022-12-22T18:41:30.758Z,93737.25
2022-12-22T18:43:57.548Z,93736.44
2022-12-22T18:46:24.803Z,93736.28
2022-12-22T18:48:51.542Z,93727.34
2022-12-22T18:51:23.928Z,93726.72
2022-12-22T18:53:52.539Z,93730.19
2022-12-22T18:56:19.532Z,93729.03
2022-12-22T18:58:46.395Z,93711.28
2022-12-22T19:01:26.600Z,93725.06
2022-12-22T19:03:55.763Z,93719.03
2022-12-22T19:06:23.245Z,93717.22
2022-12-22T19:08:51.062Z,93714.31
2022-12-22T19:11:21.168Z,93722.22
2022-12-22T19:13:49.606Z,93717.03
2022-12-22T19:16:18.497Z,93714.31
2022-12-22T19:18:45.136Z,93724.38
2022-12-22T19:21:17.187Z,93715.78
2022-12-22T19:23:44.585Z,93719.31
2022-12-22T19:26:26.344Z,93715.91
2022-12-22T19:28:56.048Z,93720.47
2022-12-22T19:31:25.891Z,93715.34
2022-12-22T19:33:53.235Z,93715.78
2022-12-22T19:36:25.738Z,93718.09
2022-12-22T19:39:02.745Z,93698.31
2022-12-22T19:41:52.065Z,93719.66
2022-12-22T19:44:24.404Z,93719.78
2022-12-22T19:46:51.975Z,93735.81
2022-12-22T19:49:21.224Z,93710.41
2022-12-22T19:51:48.496Z,93715.50
2022-12-22T19:54:15.190Z,93714.53
2022-12-22T19:56:45.771Z,93721.00
2022-12-22T19:59:26.891Z,93717.66
2022-12-22T20:01:54.048Z,93711.19
2022-12-22T20:04:20.829Z,93710.78
2022-12-22T20:06:47.670Z,93712.16
2022-12-22T20:09:14.273Z,93709.41
2022-12-22T20:11:43.656Z,93713.94
2022-12-22T20:14:18.112Z,93700.53
2022-12-22T20:16:45.129Z,93703.69
2022-12-22T20:19:15.201Z,93695.59
2022-12-22T20:21:42.409Z,93701.31
2022-12-22T20:24:18.682Z,93702.47
2022-12-22T20:26:50.175Z,93690.19
2022-12-22T20:29:20.317Z,93700.53
2022-12-22T20:31:46.960Z,93703.44
2022-12-22T20:34:13.700Z,93706.00
2022-12-22T20:36:40.341Z,93693.53
2022-12-22T20:39:12.619Z,93713.06
2022-12-22T20:41:39.469Z,93698.56
2022-12-22T20:44:06.180Z,93707.59
2022-12-22T20:46:33.112Z,93715.09
2022-12-22T20:49:01.890Z,93713.94
2022-12-22T20:51:31.179Z,93713.56
2022-12-22T20:53:58.533Z,93724.16
2022-12-22T20:56:30.955Z,93710.16
2022-12-22T20:58:59.186Z,93710.78
2022-12-22T21:01:26.132Z,93724.16
2022-12-22T21:03:53.022Z,93713.94
2022-12-22T21:06:28.007Z,93721.00
2022-12-22T21:08:56.026Z,93729.84
2022-12-22T21:11:23.365Z,93716.56
2022-12-22T21:13:50.452Z,93724.44
2022-12-22T21:16:20.829Z,93722.59
2022-12-22T21:18:47.483Z,93729.66
2022-12-22T21:21:14.840Z,93726.47
2022-12-22T21:23:41.539Z,93723.91
2022-12-22T21:26:20.376Z,93726.03
2022-12-22T21:28:47.264Z,93726.13
2022-12-22T21:31:13.934Z,93726.72
2022-12-22T21:33:40.728Z,93725.22
2022-12-22T21:36:16.876Z,93718.44
2022-12-22T21:38:43.573Z,93717.56
2022-12-22T21:41:10.145Z,93722.94
2022-12-22T21:43:36.903Z,93716.06
2022-12-22T21:46:03.582Z,93717.22
2022-12-22T21:48:30.353Z,93707.03
2022-12-22T21:50:56.937Z,93708.19
2022-12-22T21:53:23.509Z,93701.13
2022-12-22T21:55:50.418Z,93704.13
2022-12-22T21:58:17.061Z,93696.44
2022-12-22T22:00:47.185Z,93694.16
2022-12-22T22:03:15.333Z,93685.59
2022-12-22T22:05:43.496Z,93684.34
2022-12-22T22:08:11.846Z,93672.97
2022-12-22T22:10:41.554Z,93670.06
2022-12-22T22:13:08.250Z,93670.41
2022-12-22T22:15:35.478Z,93661.75
2022-12-22T22:18:06.915Z,93656.81
2022-12-22T22:20:34.256Z,93651.88
2022-12-22T22:23:01.013Z,93642.22
2022-12-22T22:25:27.989Z,93638.63
2022-12-22T22:27:59.514Z,93656.19
2022-12-22T22:30:27.105Z,93660.34
2022-12-22T22:32:54.926Z,93659.91
2022-12-22T22:35:22.484Z,93656.97
2022-12-22T22:37:52.845Z,93640.13
2022-12-22T22:40:21.588Z,93637.75
2022-12-22T22:42:48.307Z,93647.53
2022-12-22T22:45:16.801Z,93644.00
2022-12-22T22:47:43.423Z,93633.41
2022-12-22T22:50:10.203Z,93645.25
2022-12-22T22:52:37.010Z,93632.19
2022-12-22T22:55:03.892Z,93639.78
2022-12-22T22:57:30.461Z,93633.88
2022-12-22T22:59:57.026Z,93633.88
2022-12-22T23:02:24.033Z,93641.72
2022-12-22T23:04:50.806Z,93640.81
2022-12-22T23:07:17.546Z,93642.41
2022-12-22T23:09:45.372Z,93636.69
2022-12-22T23:12:12.099Z,93636.94
2022-12-22T23:14:39.375Z,93628.31
2022-12-22T23:17:06.069Z,93628.13
2022-12-22T23:19:32.747Z,93620.28
2022-12-22T23:21:59.412Z,93612.94
2022-12-22T23:24:26.026Z,93613.19
2022-12-22T23:26:52.836Z,93613.72
2022-12-22T23:29:19.437Z,93605.84
2022-12-22T23:31:46.085Z,93606.63
2022-12-22T23:34:12.779Z,93608.94
2022-12-22T23:36:39.392Z,93599.16
2022-12-22T23:39:06.244Z,93590.50
2022-12-22T23:41:32.938Z,93593.06
2022-12-22T23:43:59.585Z,93581.06
2022-12-22T23:46:26.170Z,93580.28
2022-12-22T23:48:58.164Z,93577.53
2022-12-22T23:51:27.371Z,93588.56
2022-12-22T23:53:56.030Z,93580.63
2022-12-22T23:56:23.307Z,93580.97
2022-12-22T23:58:54.588Z,93567.03
